sensor_id;sensor_type;location;lat;lon;timestamp;pressure;altitude;pressure_sealevel;temperature;humidity
61870;BME280;47810;42.264;23.826;2023-08-31T00:00:08;93280.78;;;18.83;53.57
61870;BME280;47810;42.264;23.826;2023-08-31T00:02:35;93279.41;;;18.71;53.45
61870;BME280;47810;42.264;23.826;2023-08-31T00:05:00;93274.97;;;18.96;53.68
61870;BME280;47810;42.264;23.826;2023-08-31T00:07:26;93284.16;;;18.85;52.93
61870;BME280;47810;42.264;23.826;2023-08-31T00:09:52;93278.97;;;18.76;53.02
61870;BME280;47810;42.264;23.826;2023-08-31T00:12:17;93278.13;;;18.75;53.95
61870;BME280;47810;42.264;23.826;2023-08-31T00:14:43;93280.38;;;18.54;53.67
61870;BME280;47810;42.264;23.826;2023-08-31T00:17:08;93276.44;;;18.74;53.11
61870;BME280;47810;42.264;23.826;2023-08-31T00:19:34;93277.88;;;18.60;53.64
61870;BME280;47810;42.264;23.826;2023-08-31T00:22:00;93280.72;;;18.67;55.12
61870;BME280;47810;42.264;23.826;2023-08-31T00:24:26;93282.63;;;18.75;54.01
61870;BME280;47810;42.264;23.826;2023-08-31T00:26:57;93273.44;;;18.77;52.76
61870;BME280;47810;42.264;23.826;2023-08-31T00:29:22;93283.25;;;18.69;54.55
61870;BME280;47810;42.264;23.826;2023-08-31T00:31:48;93281.88;;;18.65;56.22
61870;BME280;47810;42.264;23.826;2023-08-31T00:34:16;93278.28;;;18.31;54.10
61870;BME280;47810;42.264;23.826;2023-08-31T00:36:43;93278.22;;;18.23;54.84
61870;BME280;47810;42.264;23.826;2023-08-31T00:39:08;93280.31;;;18.37;54.82
61870;BME280;47810;42.264;23.826;2023-08-31T00:41:36;93272.97;;;18.39;54.87
61870;BME280;47810;42.264;23.826;2023-08-31T00:44:02;93276.25;;;18.25;55.16
61870;BME280;47810;42.264;23.826;2023-08-31T00:46:30;93272.38;;;18.20;55.83
61870;BME280;47810;42.264;23.826;2023-08-31T00:48:56;93274.19;;;18.11;56.28
61870;BME280;47810;42.264;23.826;2023-08-31T00:51:23;93280.63;;;18.34;57.74
61870;BME280;47810;42.264;23.826;2023-08-31T00:53:49;93283.56;;;18.23;56.35
61870;BME280;47810;42.264;23.826;2023-08-31T00:56:18;93286.16;;;18.07;56.12
61870;BME280;47810;42.264;23.826;2023-08-31T00:58:44;93286.91;;;18.17;57.03
61870;BME280;47810;42.264;23.826;2023-08-31T01:01:11;93284.78;;;17.95;56.06
61870;BME280;47810;42.264;23.826;2023-08-31T01:04:03;93281.13;;;17.96;57.14
61870;BME280;47810;42.264;23.826;2023-08-31T01:09:03;93285.31;;;17.98;56.60
61870;BME280;47810;42.264;23.826;2023-08-31T01:11:49;93287.78;;;17.91;56.62
61870;BME280;47810;42.264;23.826;2023-08-31T01:14:23;93299.44;;;17.90;56.97
61870;BME280;47810;42.264;23.826;2023-08-31T01:16:49;93297.47;;;17.92;57.42
61870;BME280;47810;42.264;23.826;2023-08-31T01:22:00;93296.78;;;17.90;56.64
61870;BME280;47810;42.264;23.826;2023-08-31T01:24:29;93307.19;;;18.02;56.74
61870;BME280;47810;42.264;23.826;2023-08-31T01:26:55;93302.66;;;17.76;57.02
61870;BME280;47810;42.264;23.826;2023-08-31T01:29:22;93314.19;;;17.95;57.31
61870;BME280;47810;42.264;23.826;2023-08-31T01:31:47;93307.31;;;17.92;56.96
61870;BME280;47810;42.264;23.826;2023-08-31T01:34:13;93305.34;;;17.76;57.92
61870;BME280;47810;42.264;23.826;2023-08-31T01:36:39;93304.44;;;17.85;57.89
61870;BME280;47810;42.264;23.826;2023-08-31T01:39:14;93301.16;;;18.00;57.91
61870;BME280;47810;42.264;23.826;2023-08-31T01:41:40;93304.47;;;17.93;58.44
61870;BME280;47810;42.264;23.826;2023-08-31T01:44:09;93301.13;;;17.91;59.21
61870;BME280;47810;42.264;23.826;2023-08-31T01:46:39;93301.13;;;17.91;59.55
61870;BME280;47810;42.264;23.826;2023-08-31T01:49:06;93305.81;;;17.98;58.62
61870;BME280;47810;42.264;23.826;2023-08-31T01:51:32;93318.28;;;17.63;58.98
61870;BME280;47810;42.264;23.826;2023-08-31T01:53:57;93313.03;;;17.53;58.76
61870;BME280;47810;42.264;23.826;2023-08-31T01:56:24;93324.63;;;17.44;58.97
61870;BME280;47810;42.264;23.826;2023-08-31T01:58:49;93318.88;;;17.57;59.75
61870;BME280;47810;42.264;23.826;2023-08-31T02:01:15;93316.53;;;17.54;58.81
61870;BME280;47810;42.264;23.826;2023-08-31T02:03:41;93315.63;;;17.71;58.75
61870;BME280;47810;42.264;23.826;2023-08-31T02:06:06;93325.59;;;17.61;59.79
61870;BME280;47810;42.264;23.826;2023-08-31T02:08:32;93310.75;;;17.40;59.88
61870;BME280;47810;42.264;23.826;2023-08-31T02:10:58;93320.03;;;17.36;60.27
61870;BME280;47810;42.264;23.826;2023-08-31T02:13:24;93320.44;;;17.41;60.95
61870;BME280;47810;42.264;23.826;2023-08-31T02:15:53;93320.75;;;17.38;61.35
61870;BME280;47810;42.264;23.826;2023-08-31T02:18:19;93311.38;;;17.34;60.30
61870;BME280;47810;42.264;23.826;2023-08-31T02:20:44;93315.84;;;17.52;60.44
61870;BME280;47810;42.264;23.826;2023-08-31T02:23:10;93311.19;;;17.54;61.11
61870;BME280;47810;42.264;23.826;2023-08-31T02:25:37;93321.59;;;17.65;59.96
61870;BME280;47810;42.264;23.826;2023-08-31T02:28:03;93319.00;;;17.73;60.67
61870;BME280;47810;42.264;23.826;2023-08-31T02:30:28;93319.25;;;17.80;61.50
61870;BME280;47810;42.264;23.826;2023-08-31T02:32:54;93324.34;;;17.73;61.71
61870;BME280;47810;42.264;23.826;2023-08-31T02:35:20;93324.97;;;17.67;60.34
61870;BME280;47810;42.264;23.826;2023-08-31T02:37:45;93334.13;;;17.82;60.14
61870;BME280;47810;42.264;23.826;2023-08-31T02:40:11;93320.75;;;17.38;60.56
61870;BME280;47810;42.264;23.826;2023-08-31T02:42:37;93339.00;;;17.69;60.67
61870;BME280;47810;42.264;23.826;2023-08-31T02:45:02;93332.78;;;17.42;60.80
61870;BME280;47810;42.264;23.826;2023-08-31T02:47:28;93338.72;;;17.54;60.89
61870;BME280;47810;42.264;23.826;2023-08-31T02:49:54;93337.09;;;17.61;61.05
61870;BME280;47810;42.264;23.826;2023-08-31T02:52:20;93330.06;;;17.78;60.19
61870;BME280;47810;42.264;23.826;2023-08-31T02:54:45;93341.97;;;17.84;60.05
61870;BME280;47810;42.264;23.826;2023-08-31T02:57:11;93334.47;;;17.87;60.43
61870;BME280;47810;42.264;23.826;2023-08-31T02:59:37;93337.00;;;17.71;60.20
61870;BME280;47810;42.264;23.826;2023-08-31T03:02:03;93346.94;;;17.61;61.24
61870;BME280;47810;42.264;23.826;2023-08-31T03:04:29;93344.84;;;17.46;61.35
61870;BME280;47810;42.264;23.826;2023-08-31T03:06:54;93346.63;;;17.64;61.60
61870;BME280;47810;42.264;23.826;2023-08-31T03:09:20;93340.16;;;17.66;60.84
61870;BME280;47810;42.264;23.826;2023-08-31T03:11:46;93346.56;;;17.56;60.75
61870;BME280;47810;42.264;23.826;2023-08-31T03:14:11;93340.34;;;17.47;61.93
61870;BME280;47810;42.264;23.826;2023-08-31T03:16:37;93339.13;;;17.23;61.51
61870;BME280;47810;42.264;23.826;2023-08-31T03:19:02;93335.53;;;17.51;61.09
61870;BME280;47810;42.264;23.826;2023-08-31T03:21:28;93334.19;;;17.73;60.61
61870;BME280;47810;42.264;23.826;2023-08-31T03:23:53;93333.00;;;17.49;60.80
61870;BME280;47810;42.264;23.826;2023-08-31T03:26:19;93331.59;;;17.37;60.74
61870;BME280;47810;42.264;23.826;2023-08-31T03:28:45;93333.84;;;17.50;60.08
61870;BME280;47810;42.264;23.826;2023-08-31T03:31:10;93338.50;;;17.48;61.03
61870;BME280;47810;42.264;23.826;2023-08-31T03:33:36;93333.84;;;17.50;60.87
61870;BME280;47810;42.264;23.826;2023-08-31T03:36:02;93336.06;;;17.54;60.38
61870;BME280;47810;42.264;23.826;2023-08-31T03:38:30;93336.88;;;17.55;59.77
61870;BME280;47810;42.264;23.826;2023-08-31T03:40:56;93344.13;;;17.62;61.70
61870;BME280;47810;42.264;23.826;2023-08-31T03:43:22;93356.06;;;17.76;61.08
61870;BME280;47810;42.264;23.826;2023-08-31T03:45:53;93364.00;;;17.68;61.21
61870;BME280;47810;42.264;23.826;2023-08-31T03:48:39;93366.31;;;17.63;62.63
61870;BME280;47810;42.264;23.826;2023-08-31T03:51:09;93375.16;;;17.45;62.92
61870;BME280;47810;42.264;23.826;2023-08-31T03:53:34;93378.38;;;17.31;62.80
61870;BME280;47810;42.264;23.826;2023-08-31T03:56:07;93377.94;;;17.18;63.29
61870;BME280;47810;42.264;23.826;2023-08-31T03:58:33;93386.59;;;17.20;63.10
61870;BME280;47810;42.264;23.826;2023-08-31T04:01:01;93382.91;;;17.31;64.44
61870;BME280;47810;42.264;23.826;2023-08-31T04:03:27;93381.13;;;17.39;63.78
61870;BME280;47810;42.264;23.826;2023-08-31T04:05:53;93397.75;;;17.33;64.55
61870;BME280;47810;42.264;23.826;2023-08-31T04:08:19;93407.94;;;17.20;65.40
61870;BME280;47810;42.264;23.826;2023-08-31T04:10:45;93408.09;;;17.36;64.58
61870;BME280;47810;42.264;23.826;2023-08-31T04:13:10;93409.03;;;17.27;64.69
61870;BME280;47810;42.264;23.826;2023-08-31T04:15:36;93412.16;;;17.22;65.29
61870;BME280;47810;42.264;23.826;2023-08-31T04:18:01;93414.38;;;17.27;65.18
61870;BME280;47810;42.264;23.826;2023-08-31T04:20:27;93416.06;;;17.28;64.83
61870;BME280;47810;42.264;23.826;2023-08-31T04:22:53;93429.28;;;17.20;63.65
61870;BME280;47810;42.264;23.826;2023-08-31T04:25:19;93437.22;;;17.12;65.70
61870;BME280;47810;42.264;23.826;2023-08-31T04:27:45;93438.00;;;17.22;65.52
61870;BME280;47810;42.264;23.826;2023-08-31T04:30:11;93442.44;;;17.31;64.75
61870;BME280;47810;42.264;23.826;2023-08-31T04:32:38;93441.66;;;17.39;64.50
61870;BME280;47810;42.264;23.826;2023-08-31T04:35:04;93447.63;;;17.51;63.17
61870;BME280;47810;42.264;23.826;2023-08-31T04:37:32;93455.03;;;17.57;65.50
61870;BME280;47810;42.264;23.826;2023-08-31T04:39:58;93453.88;;;17.41;64.11
61870;BME280;47810;42.264;23.826;2023-08-31T04:42:24;93461.03;;;17.59;65.20
61870;BME280;47810;42.264;23.826;2023-08-31T04:44:52;93456.19;;;17.72;65.35
61870;BME280;47810;42.264;23.826;2023-08-31T04:47:18;93457.31;;;17.69;65.18
61870;BME280;47810;42.264;23.826;2023-08-31T04:49:44;93461.19;;;17.75;66.13
61870;BME280;47810;42.264;23.826;2023-08-31T04:52:09;93457.84;;;17.73;64.45
61870;BME280;47810;42.264;23.826;2023-08-31T04:54:35;93447.44;;;17.80;64.48
61870;BME280;47810;42.264;23.826;2023-08-31T04:57:05;93452.91;;;17.96;64.96
61870;BME280;47810;42.264;23.826;2023-08-31T04:59:32;93449.63;;;18.02;63.89
61870;BME280;47810;42.264;23.826;2023-08-31T05:01:58;93453.63;;;18.24;66.22
61870;BME280;47810;42.264;23.826;2023-08-31T05:04:23;93455.56;;;18.14;64.54
61870;BME280;47810;42.264;23.826;2023-08-31T05:06:53;93452.72;;;18.15;64.92
61870;BME280;47810;42.264;23.826;2023-08-31T05:09:19;93449.25;;;18.23;64.02
61870;BME280;47810;42.264;23.826;2023-08-31T05:11:45;93457.66;;;18.28;62.95
61870;BME280;47810;42.264;23.826;2023-08-31T05:14:11;93453.25;;;18.19;63.17
61870;BME280;47810;42.264;23.826;2023-08-31T05:16:36;93448.31;;;18.32;62.96
61870;BME280;47810;42.264;23.826;2023-08-31T05:19:02;93452.69;;;18.33;61.92
61870;BME280;47810;42.264;23.826;2023-08-31T05:21:28;93454.28;;;18.26;62.10
61870;BME280;47810;42.264;23.826;2023-08-31T05:23:53;93443.59;;;18.26;65.49
61870;BME280;47810;42.264;23.826;2023-08-31T05:26:19;93445.09;;;18.47;64.34
61870;BME280;47810;42.264;23.826;2023-08-31T05:28:44;93443.34;;;18.37;63.86
61870;BME280;47810;42.264;23.826;2023-08-31T05:31:10;93446.72;;;18.39;64.10
61870;BME280;47810;42.264;23.826;2023-08-31T05:33:35;93448.81;;;18.54;65.30
61870;BME280;47810;42.264;23.826;2023-08-31T05:36:02;93444.38;;;18.71;65.91
61870;BME280;47810;42.264;23.826;2023-08-31T05:38:30;93435.69;;;18.69;64.53
61870;BME280;47810;42.264;23.826;2023-08-31T05:41:08;93435.50;;;18.70;62.18
61870;BME280;47810;42.264;23.826;2023-08-31T05:43:34;93439.31;;;18.85;64.20
61870;BME280;47810;42.264;23.826;2023-08-31T05:46:00;93441.28;;;18.83;62.63
61870;BME280;47810;42.264;23.826;2023-08-31T05:48:26;93449.38;;;18.92;63.65
61870;BME280;47810;42.264;23.826;2023-08-31T05:50:52;93453.88;;;18.91;63.31
61870;BME280;47810;42.264;23.826;2023-08-31T05:53:17;93458.38;;;18.91;62.71
61870;BME280;47810;42.264;23.826;2023-08-31T05:55:43;93458.78;;;19.04;62.34
61870;BME280;47810;42.264;23.826;2023-08-31T05:58:08;93462.44;;;19.03;63.82
61870;BME280;47810;42.264;23.826;2023-08-31T06:00:34;93460.47;;;19.05;64.30
61870;BME280;47810;42.264;23.826;2023-08-31T06:03:05;93459.09;;;19.01;62.53
61870;BME280;47810;42.264;23.826;2023-08-31T06:05:31;93461.66;;;19.11;62.31
61870;BME280;47810;42.264;23.826;2023-08-31T06:07:58;93458.19;;;19.26;62.80
61870;BME280;47810;42.264;23.826;2023-08-31T06:10:23;93458.72;;;19.30;61.57
61870;BME280;47810;42.264;23.826;2023-08-31T06:12:49;93457.53;;;19.24;61.17
61870;BME280;47810;42.264;23.826;2023-08-31T06:15:16;93457.06;;;19.45;61.43
61870;BME280;47810;42.264;23.826;2023-08-31T06:17:41;93462.41;;;19.45;62.36
61870;BME280;47810;42.264;23.826;2023-08-31T06:20:07;93467.25;;;19.42;60.27
61870;BME280;47810;42.264;23.826;2023-08-31T06:22:36;93463.97;;;19.56;60.98
61870;BME280;47810;42.264;23.826;2023-08-31T06:25:02;93467.41;;;20.07;59.75
61870;BME280;47810;42.264;23.826;2023-08-31T06:27:30;93477.47;;;19.97;60.72
61870;BME280;47810;42.264;23.826;2023-08-31T06:29:56;93482.16;;;19.95;60.11
61870;BME280;47810;42.264;23.826;2023-08-31T06:32:30;93478.47;;;20.12;61.44
61870;BME280;47810;42.264;23.826;2023-08-31T06:34:56;93484.66;;;20.21;59.68
61870;BME280;47810;42.264;23.826;2023-08-31T06:37:21;93473.78;;;20.39;60.82
61870;BME280;47810;42.264;23.826;2023-08-31T06:39:47;93483.81;;;20.37;60.21
61870;BME280;47810;42.264;23.826;2023-08-31T06:42:13;93473.78;;;20.31;58.23
61870;BME280;47810;42.264;23.826;2023-08-31T06:44:38;93480.81;;;20.56;59.63
61870;BME280;47810;42.264;23.826;2023-08-31T06:47:04;93483.50;;;20.56;58.43
61870;BME280;47810;42.264;23.826;2023-08-31T06:49:29;93487.50;;;20.68;57.29
61870;BME280;47810;42.264;23.826;2023-08-31T06:51:58;93484.81;;;20.77;56.33
61870;BME280;47810;42.264;23.826;2023-08-31T06:54:23;93486.78;;;20.91;56.18
61870;BME280;47810;42.264;23.826;2023-08-31T06:56:49;93485.09;;;21.06;56.00
61870;BME280;47810;42.264;23.826;2023-08-31T06:59:14;93489.31;;;21.48;58.47
61870;BME280;47810;42.264;23.826;2023-08-31T07:01:40;93490.50;;;21.46;53.89
61870;BME280;47810;42.264;23.826;2023-08-31T07:04:05;93494.47;;;21.58;53.58
61870;BME280;47810;42.264;23.826;2023-08-31T07:06:33;93493.56;;;21.66;53.25
61870;BME280;47810;42.264;23.826;2023-08-31T07:08:58;93492.19;;;21.70;52.77
61870;BME280;47810;42.264;23.826;2023-08-31T07:11:27;93487.13;;;22.06;54.66
61870;BME280;47810;42.264;23.826;2023-08-31T07:13:53;93495.63;;;22.18;51.70
61870;BME280;47810;42.264;23.826;2023-08-31T07:16:18;93496.16;;;22.36;53.00
61870;BME280;47810;42.264;23.826;2023-08-31T07:18:44;93497.31;;;22.56;52.30
61870;BME280;47810;42.264;23.826;2023-08-31T07:21:09;93491.88;;;22.65;54.30
61870;BME280;47810;42.264;23.826;2023-08-31T07:23:35;93508.53;;;22.45;54.45
61870;BME280;47810;42.264;23.826;2023-08-31T07:26:00;93494.91;;;22.24;51.33
61870;BME280;47810;42.264;23.826;2023-08-31T07:28:29;93510.19;;;22.46;50.96
61870;BME280;47810;42.264;23.826;2023-08-31T07:31:16;93502.19;;;22.61;49.20
61870;BME280;47810;42.264;23.826;2023-08-31T07:33:52;93506.50;;;22.47;51.62
61870;BME280;47810;42.264;23.826;2023-08-31T07:36:25;93512.00;;;22.54;48.32
61870;BME280;47810;42.264;23.826;2023-08-31T07:38:51;93510.53;;;22.66;52.30
61870;BME280;47810;42.264;23.826;2023-08-31T07:41:16;93507.66;;;22.68;48.62
61870;BME280;47810;42.264;23.826;2023-08-31T07:43:42;93500.81;;;23.03;47.42
61870;BME280;47810;42.264;23.826;2023-08-31T08:00:10;93506.41;;;24.55;43.61
61870;BME280;47810;42.264;23.826;2023-08-31T08:02:36;93511.91;;;24.25;46.11
61870;BME280;47810;42.264;23.826;2023-08-31T08:05:01;93510.13;;;24.11;44.87
61870;BME280;47810;42.264;23.826;2023-08-31T08:10:53;93515.50;;;24.11;46.25
61870;BME280;47810;42.264;23.826;2023-08-31T08:13:49;93511.38;;;24.15;45.18
61870;BME280;47810;42.264;23.826;2023-08-31T08:16:19;93510.13;;;24.11;44.64
61870;BME280;47810;42.264;23.826;2023-08-31T08:28:17;93504.53;;;24.34;48.23
61870;BME280;47810;42.264;23.826;2023-08-31T08:30:57;93504.47;;;24.70;44.90
61870;BME280;47810;42.264;23.826;2023-08-31T08:33:30;93503.03;;;24.96;44.38
61870;BME280;47810;42.264;23.826;2023-08-31T08:39:18;93502.72;;;25.75;43.05
61870;BME280;47810;42.264;23.826;2023-08-31T08:41:48;93500.38;;;25.65;43.07
61870;BME280;47810;42.264;23.826;2023-08-31T08:44:14;93503.13;;;25.78;41.43
61870;BME280;47810;42.264;23.826;2023-08-31T08:46:42;93506.09;;;25.90;41.24
61870;BME280;47810;42.264;23.826;2023-08-31T08:49:09;93507.59;;;25.99;41.02
61870;BME280;47810;42.264;23.826;2023-08-31T08:51:36;93504.31;;;26.11;40.85
61870;BME280;47810;42.264;23.826;2023-08-31T08:54:12;93506.31;;;26.57;41.09
61870;BME280;47810;42.264;23.826;2023-08-31T08:56:41;93498.03;;;26.71;41.43
61870;BME280;47810;42.264;23.826;2023-08-31T08:59:07;93497.03;;;26.05;41.42
61870;BME280;47810;42.264;23.826;2023-08-31T09:01:33;93503.56;;;26.37;42.37
61870;BME280;47810;42.264;23.826;2023-08-31T09:04:00;93484.06;;;26.88;39.95
61870;BME280;47810;42.264;23.826;2023-08-31T09:06:27;93487.59;;;27.08;38.75
61870;BME280;47810;42.264;23.826;2023-08-31T09:08:55;93500.66;;;27.78;41.08
61870;BME280;47810;42.264;23.826;2023-08-31T09:11:22;93497.03;;;27.97;37.94
61870;BME280;47810;42.264;23.826;2023-08-31T09:13:47;93496.63;;;27.94;37.42
61870;BME280;47810;42.264;23.826;2023-08-31T09:16:34;93494.16;;;27.79;40.28
61870;BME280;47810;42.264;23.826;2023-08-31T09:18:59;93485.50;;;27.37;37.93
61870;BME280;47810;42.264;23.826;2023-08-31T09:21:34;93483.03;;;27.29;37.92
61870;BME280;47810;42.264;23.826;2023-08-31T09:24:00;93493.16;;;27.53;37.04
61870;BME280;47810;42.264;23.826;2023-08-31T09:26:25;93491.78;;;27.17;38.38
61870;BME280;47810;42.264;23.826;2023-08-31T09:28:51;93499.69;;;26.66;37.99
61870;BME280;47810;42.264;23.826;2023-08-31T09:31:17;93498.44;;;26.55;39.01
61870;BME280;47810;42.264;23.826;2023-08-31T09:33:50;93496.69;;;26.34;38.85
61870;BME280;47810;42.264;23.826;2023-08-31T09:36:15;93497.50;;;26.28;39.99
61870;BME280;47810;42.264;23.826;2023-08-31T09:38:42;93493.59;;;26.51;39.13
61870;BME280;47810;42.264;23.826;2023-08-31T09:41:08;93497.59;;;26.81;38.40
61870;BME280;47810;42.264;23.826;2023-08-31T09:43:37;93496.50;;;27.55;37.66
61870;BME280;47810;42.264;23.826;2023-08-31T09:46:04;93491.69;;;27.57;37.58
61870;BME280;47810;42.264;23.826;2023-08-31T09:48:30;93495.41;;;27.83;36.75
61870;BME280;47810;42.264;23.826;2023-08-31T09:50:56;93484.53;;;27.83;37.54
61870;BME280;47810;42.264;23.826;2023-08-31T09:53:25;93493.00;;;27.22;37.38
61870;BME280;47810;42.264;23.826;2023-08-31T09:55:54;93498.44;;;27.22;41.43
61870;BME280;47810;42.264;23.826;2023-08-31T09:58:21;93497.38;;;27.09;38.30
61870;BME280;47810;42.264;23.826;2023-08-31T10:00:48;93493.84;;;27.02;38.82
61870;BME280;47810;42.264;23.826;2023-08-31T10:03:14;93496.53;;;27.02;39.88
61870;BME280;47810;42.264;23.826;2023-08-31T10:05:44;93489.06;;;26.91;38.56
61870;BME280;47810;42.264;23.826;2023-08-31T10:08:10;93491.91;;;27.62;37.62
61870;BME280;47810;42.264;23.826;2023-08-31T10:10:36;93486.50;;;28.14;36.21
61870;BME280;47810;42.264;23.826;2023-08-31T10:13:03;93489.47;;;27.99;36.35
61870;BME280;47810;42.264;23.826;2023-08-31T10:15:31;93488.72;;;27.85;36.22
61870;BME280;47810;42.264;23.826;2023-08-31T10:17:59;93487.56;;;27.35;38.59
61870;BME280;47810;42.264;23.826;2023-08-31T10:20:24;93495.41;;;28.28;37.45
61870;BME280;47810;42.264;23.826;2023-08-31T10:22:54;93491.91;;;28.21;34.96
61870;BME280;47810;42.264;23.826;2023-08-31T10:25:21;93493.44;;;28.48;35.30
61870;BME280;47810;42.264;23.826;2023-08-31T10:27:47;93495.47;;;28.15;35.66
61870;BME280;47810;42.264;23.826;2023-08-31T10:33:33;93502.53;;;27.57;35.91
61870;BME280;47810;42.264;23.826;2023-08-31T10:35:47;93490.28;;;27.48;37.74
61870;BME280;47810;42.264;23.826;2023-08-31T10:46:19;93500.06;;;28.14;35.82
61870;BME280;47810;42.264;23.826;2023-08-31T10:48:53;93507.47;;;27.94;35.42
61870;BME280;47810;42.264;23.826;2023-08-31T10:51:21;93505.50;;;27.49;35.98
61870;BME280;47810;42.264;23.826;2023-08-31T10:53:47;93497.81;;;27.13;36.96
61870;BME280;47810;42.264;23.826;2023-08-31T10:56:14;93498.00;;;27.25;37.19
61870;BME280;47810;42.264;23.826;2023-08-31T10:58:40;93503.66;;;27.30;36.58
61870;BME280;47810;42.264;23.826;2023-08-31T11:01:06;93503.88;;;27.15;36.49
61870;BME280;47810;42.264;23.826;2023-08-31T11:03:31;93508.44;;;27.01;36.24
61870;BME280;47810;42.264;23.826;2023-08-31T11:05:57;93503.44;;;27.11;35.95
61870;BME280;47810;42.264;23.826;2023-08-31T11:08:26;93497.19;;;27.31;36.43
61870;BME280;47810;42.264;23.826;2023-08-31T11:10:52;93506.56;;;27.15;36.87
61870;BME280;47810;42.264;23.826;2023-08-31T11:13:19;93495.09;;;26.80;37.30
61870;BME280;47810;42.264;23.826;2023-08-31T11:15:45;93496.13;;;26.92;37.49
61870;BME280;47810;42.264;23.826;2023-08-31T11:18:11;93497.19;;;27.04;37.19
61870;BME280;47810;42.264;23.826;2023-08-31T11:20:37;93490.94;;;26.97;38.53
61870;BME280;47810;42.264;23.826;2023-08-31T11:23:02;93494.25;;;26.99;37.82
61870;BME280;47810;42.264;23.826;2023-08-31T11:25:30;93494.66;;;26.96;38.16
61870;BME280;47810;42.264;23.826;2023-08-31T11:27:57;93493.03;;;26.82;38.43
61870;BME280;47810;42.264;23.826;2023-08-31T11:30:24;93495.72;;;26.82;39.42
61870;BME280;47810;42.264;23.826;2023-08-31T11:32:52;93495.09;;;26.80;39.20
61870;BME280;47810;42.264;23.826;2023-08-31T11:35:18;93497.59;;;26.75;39.68
61870;BME280;47810;42.264;23.826;2023-08-31T11:37:44;93498.44;;;26.82;38.43
61870;BME280;47810;42.264;23.826;2023-08-31T11:40:10;93508.66;;;27.06;42.39
61870;BME280;47810;42.264;23.826;2023-08-31T11:42:37;93501.97;;;26.76;38.24
61870;BME280;47810;42.264;23.826;2023-08-31T11:45:02;93498.84;;;26.65;38.77
61870;BME280;47810;42.264;23.826;2023-08-31T11:47:30;93497.78;;;26.66;38.25
61870;BME280;47810;42.264;23.826;2023-08-31T11:49:56;93500.50;;;26.66;36.92
61870;BME280;47810;42.264;23.826;2023-08-31T11:52:22;93495.50;;;26.77;38.86
61870;BME280;47810;42.264;23.826;2023-08-31T11:54:47;93491.75;;;27.04;37.33
61870;BME280;47810;42.264;23.826;2023-08-31T11:57:17;93493.38;;;27.58;35.30
61870;BME280;47810;42.264;23.826;2023-08-31T11:59:42;93483.19;;;28.05;36.21
61870;BME280;47810;42.264;23.826;2023-08-31T12:02:08;93476.66;;;28.20;34.80
61870;BME280;47810;42.264;23.826;2023-08-31T12:04:43;93474.88;;;28.00;37.15
61870;BME280;47810;42.264;23.826;2023-08-31T12:07:12;93483.53;;;27.77;37.62
61870;BME280;47810;42.264;23.826;2023-08-31T12:09:41;93481.28;;;27.48;38.36
61870;BME280;47810;42.264;23.826;2023-08-31T12:12:07;93475.88;;;27.41;36.22
61870;BME280;47810;42.264;23.826;2023-08-31T12:14:33;93479.25;;;27.23;38.57
61870;BME280;47810;42.264;23.826;2023-08-31T12:17:23;93481.34;;;27.01;37.76
61870;BME280;47810;42.264;23.826;2023-08-31T12:20:04;93483.81;;;27.09;35.88
61870;BME280;47810;42.264;23.826;2023-08-31T12:22:33;93483.84;;;26.96;37.39
61870;BME280;47810;42.264;23.826;2023-08-31T12:24:58;93491.31;;;26.67;36.92
61870;BME280;47810;42.264;23.826;2023-08-31T12:27:24;93482.59;;;26.65;39.37
61870;BME280;47810;42.264;23.826;2023-08-31T12:29:49;93487.50;;;26.42;37.35
61870;BME280;47810;42.264;23.826;2023-08-31T12:32:16;93489.66;;;26.53;40.40
61870;BME280;47810;42.264;23.826;2023-08-31T12:34:43;93499.19;;;26.36;37.70
61870;BME280;47810;42.264;23.826;2023-08-31T12:37:08;93497.91;;;26.32;40.89
61870;BME280;47810;42.264;23.826;2023-08-31T12:39:34;93500.63;;;26.38;38.75
61870;BME280;47810;42.264;23.826;2023-08-31T12:42:00;93495.00;;;26.27;37.98
61870;BME280;47810;42.264;23.826;2023-08-31T12:44:25;93489.19;;;26.36;42.02
61870;BME280;47810;42.264;23.826;2023-08-31T12:46:53;93482.06;;;26.29;36.62
61870;BME280;47810;42.264;23.826;2023-08-31T12:49:19;93481.06;;;26.30;40.50
61870;BME280;47810;42.264;23.826;2023-08-31T12:51:45;93483.38;;;26.39;40.51
61870;BME280;47810;42.264;23.826;2023-08-31T12:54:11;93487.25;;;26.10;36.91
61870;BME280;47810;42.264;23.826;2023-08-31T12:56:37;93481.84;;;26.04;39.58
61870;BME280;47810;42.264;23.826;2023-08-31T12:59:03;93485.22;;;25.77;36.82
61870;BME280;47810;42.264;23.826;2023-08-31T13:01:30;93480.75;;;25.98;40.28
61870;BME280;47810;42.264;23.826;2023-08-31T13:03:56;93484.50;;;25.97;37.56
61870;BME280;47810;42.264;23.826;2023-08-31T13:06:22;93484.16;;;26.13;36.39
61870;BME280;47810;42.264;23.826;2023-08-31T13:08:49;93475.56;;;26.03;37.83
61870;BME280;47810;42.264;23.826;2023-08-31T13:11:16;93481.19;;;26.01;36.94
61870;BME280;47810;42.264;23.826;2023-08-31T13:13:48;93484.16;;;26.13;39.46
61870;BME280;47810;42.264;23.826;2023-08-31T13:16:14;93484.16;;;26.13;36.75
61870;BME280;47810;42.264;23.826;2023-08-31T13:18:39;93472.94;;;26.36;35.28
61870;BME280;47810;42.264;23.826;2023-08-31T13:21:05;93475.28;;;26.53;37.18
61870;BME280;47810;42.264;23.826;2023-08-31T13:23:31;93469.47;;;26.76;35.88
61870;BME280;47810;42.264;23.826;2023-08-31T13:25:57;93466.75;;;26.69;34.73
61870;BME280;47810;42.264;23.826;2023-08-31T13:28:22;93469.47;;;26.76;37.33
61870;BME280;47810;42.264;23.826;2023-08-31T13:30:49;93469.69;;;26.81;35.86
61870;BME280;47810;42.264;23.826;2023-08-31T13:33:15;93467.59;;;26.63;36.16
61870;BME280;47810;42.264;23.826;2023-08-31T13:35:40;93473.41;;;26.66;36.75